createdAt,value
2023-01-22T00:01:58.708Z,101303.75
2023-01-22T00:04:28.573Z,101306.09
2023-01-22T00:06:56.936Z,101308.38
2023-01-22T00:09:25.660Z,101310.03
2023-01-22T00:11:54.111Z,101299.16
2023-01-22T00:14:22.529Z,101299.59
2023-01-22T00:16:50.930Z,101298.94
2023-01-22T00:19:19.270Z,101303.09
2023-01-22T00:21:49.038Z,101302.25
2023-01-22T00:24:17.684Z,101303.38
2023-01-22T00:26:46.332Z,101301.31
2023-01-22T00:29:14.977Z,101296.53
2023-01-22T00:31:44.387Z,101299.78
2023-01-22T00:34:12.948Z,101298.59
2023-01-22T00:36:42.733Z,101304.41
2023-01-22T00:39:12.576Z,101294.41
2023-01-22T00:41:42.096Z,101293.88
2023-01-22T00:44:10.511Z,101272.50
2023-01-22T00:46:38.961Z,101293.56
2023-01-22T00:49:07.348Z,101283.72
2023-01-22T00:51:36.838Z,101270.72
2023-01-22T00:54:05.452Z,101288.50
2023-01-22T00:56:35.208Z,101293.78
2023-01-22T00:59:10.188Z,101287.84
2023-01-22T01:01:38.631Z,101292.25
2023-01-22T01:04:07.140Z,101295.03
2023-01-22T01:06:35.715Z,101299.69
2023-01-22T01:09:05.444Z,101297.78
2023-01-22T01:11:40.407Z,101290.53
2023-01-22T01:14:08.848Z,101295.94
2023-01-22T01:16:37.174Z,101297.25
2023-01-22T01:19:08.240Z,101290.97
2023-01-22T01:21:36.737Z,101299.13
2023-01-22T01:24:05.836Z,101305.75
2023-01-22T01:26:36.534Z,101298.00
2023-01-22T01:29:09.952Z,101299.72
2023-01-22T01:31:39.255Z,101300.69
2023-01-22T01:34:08.843Z,101306.06
2023-01-22T01:36:52.480Z,101304.44
2023-01-22T01:39:20.988Z,101307.19
2023-01-22T01:41:50.531Z,101305.84
2023-01-22T01:44:21.319Z,101306.53
2023-01-22T01:46:51.813Z,101311.28
2023-01-22T01:49:27.131Z,101307.31
2023-01-22T01:51:57.720Z,101308.53
2023-01-22T01:54:27.072Z,101312.69
2023-01-22T01:57:00.845Z,101305.66
2023-01-22T01:59:33.624Z,101309.19
2023-01-22T02:02:08.125Z,101314.34
2023-01-22T02:04:36.580Z,101314.47
2023-01-22T02:07:05.962Z,101313.47
2023-01-22T02:09:35.635Z,101313.34
2023-01-22T02:12:04.433Z,101313.44
2023-01-22T02:14:35.757Z,101305.13
2023-01-22T02:17:08.057Z,101307.34
2023-01-22T02:19:36.474Z,101307.53
2023-01-22T02:22:12.815Z,101316.25
2023-01-22T02:24:41.208Z,101313.91
2023-01-22T02:27:10.196Z,101313.47
2023-01-22T02:29:38.861Z,101309.19
2023-01-22T02:32:07.226Z,101315.81
2023-01-22T02:34:36.881Z,101311.63
2023-01-22T02:37:06.919Z,101307.66
2023-01-22T02:39:35.443Z,101323.25
2023-01-22T02:42:06.233Z,101324.91
2023-01-22T02:44:34.767Z,101327.97
2023-01-22T02:47:03.254Z,101329.75
2023-01-22T02:49:31.653Z,101323.19
2023-01-22T02:52:00.042Z,101313.41
2023-01-22T02:54:30.087Z,101327.66
2023-01-22T02:56:58.421Z,101326.44
2023-01-22T02:59:27.185Z,101328.66
2023-01-22T03:01:57.231Z,101333.47
2023-01-22T03:04:28.964Z,101331.41
2023-01-22T03:06:57.524Z,101339.88
2023-01-22T03:09:30.551Z,101340.19
2023-01-22T03:11:59.939Z,101332.94
2023-01-22T03:14:49.360Z,101332.50
2023-01-22T03:17:36.217Z,101345.19
2023-01-22T03:20:22.738Z,101341.72
2023-01-22T03:22:51.147Z,101341.59
2023-01-22T03:25:22.475Z,101344.34
2023-01-22T03:28:18.935Z,101342.53
2023-01-22T03:30:57.484Z,101341.00
2023-01-22T03:33:27.050Z,101347.06
2023-01-22T03:35:55.721Z,101341.59
2023-01-22T03:38:24.035Z,101347.78
2023-01-22T03:40:54.960Z,101348.56
2023-01-22T03:43:24.345Z,101348.06
2023-01-22T03:45:53.075Z,101344.19
2023-01-22T03:48:22.945Z,101357.31
2023-01-22T03:50:51.404Z,101357.31
2023-01-22T03:53:19.869Z,101359.19
2023-01-22T03:55:59.660Z,101364.59
2023-01-22T03:58:30.930Z,101362.84
2023-01-22T04:01:02.254Z,101356.47
2023-01-22T04:03:32.192Z,101359.75
2023-01-22T04:06:01.391Z,101361.53
2023-01-22T04:08:30.610Z,101349.63
2023-01-22T04:11:00.990Z,101355.03
2023-01-22T04:13:31.593Z,101366.75
2023-01-22T04:16:00.116Z,101362.22
2023-01-22T04:18:54.482Z,101368.28
2023-01-22T04:21:41.655Z,101367.84
2023-01-22T04:24:12.417Z,101371.25
2023-01-22T04:26:42.201Z,101371.81
2023-01-22T04:29:11.118Z,101370.28
2023-01-22T04:31:39.735Z,101362.56
2023-01-22T04:34:19.927Z,101372.81
2023-01-22T04:36:55.836Z,101371.69
2023-01-22T04:39:26.187Z,101377.97
2023-01-22T04:41:56.062Z,101375.00
2023-01-22T04:44:24.478Z,101375.25
2023-01-22T04:46:52.826Z,101362.97
2023-01-22T04:49:21.726Z,101373.72
2023-01-22T04:51:54.191Z,101374.03
2023-01-22T04:54:22.899Z,101382.84
2023-01-22T04:56:51.589Z,101371.50
2023-01-22T04:59:21.571Z,101377.69
2023-01-22T05:01:51.079Z,101381.44
2023-01-22T05:04:21.897Z,101385.06
2023-01-22T05:06:50.580Z,101379.56
2023-01-22T05:09:19.377Z,101387.47
2023-01-22T05:11:54.175Z,101388.25
2023-01-22T05:14:24.063Z,101395.44
2023-01-22T05:16:53.747Z,101391.25
2023-01-22T05:19:22.407Z,101405.59
2023-01-22T05:21:50.826Z,101408.22
2023-01-22T05:24:20.238Z,101407.56
2023-01-22T05:26:48.631Z,101412.53
2023-01-22T05:29:29.350Z,101420.28
2023-01-22T05:32:24.974Z,101419.81
2023-01-22T05:34:59.315Z,101420.69
2023-01-22T05:37:32.594Z,101430.63
2023-01-22T05:40:02.220Z,101433.50
2023-01-22T05:42:33.810Z,101437.13
2023-01-22T05:45:04.946Z,101436.72
2023-01-22T05:47:39.561Z,101442.09
2023-01-22T05:50:27.475Z,101430.19
2023-01-22T05:53:04.077Z,101443.09
2023-01-22T05:55:33.877Z,101428.63
2023-01-22T05:58:04.829Z,101446.19
2023-01-22T06:00:36.265Z,101443.53
2023-01-22T06:03:09.005Z,101439.34
2023-01-22T06:05:46.236Z,101451.69
2023-01-22T06:08:14.717Z,101460.53
2023-01-22T06:10:50.670Z,101467.38
2023-01-22T06:13:20.418Z,101467.69
2023-01-22T06:15:54.559Z,101472.22
2023-01-22T06:18:42.994Z,101475.78
2023-01-22T06:21:13.699Z,101475.44
2023-01-22T06:23:42.089Z,101487.25
2023-01-22T06:26:14.377Z,101484.72
2023-01-22T06:28:44.656Z,101488.78
2023-01-22T06:31:14.444Z,101493.66
2023-01-22T06:33:42.974Z,101489.56
2023-01-22T06:36:11.469Z,101495.19
2023-01-22T06:38:40.015Z,101499.63
2023-01-22T06:41:13.215Z,101507.34
2023-01-22T06:43:42.853Z,101504.50
2023-01-22T06:46:11.490Z,101506.91
2023-01-22T06:49:02.833Z,101514.53
2023-01-22T06:51:33.598Z,101516.84
2023-01-22T06:54:03.151Z,101528.88
2023-01-22T06:56:31.545Z,101532.75
2023-01-22T06:59:03.321Z,101523.56
2023-01-22T07:01:31.800Z,101536.16
2023-01-22T07:04:01.676Z,101537.16
2023-01-22T07:06:30.324Z,101533.84
2023-01-22T07:09:01.105Z,101535.03
2023-01-22T07:11:31.131Z,101542.38
2023-01-22T07:13:59.595Z,101549.31
2023-01-22T07:16:31.372Z,101553.25
2023-01-22T07:19:01.182Z,101555.03
2023-01-22T07:21:31.194Z,101555.34
2023-01-22T07:23:59.528Z,101557.13
2023-01-22T07:26:27.817Z,101546.75
2023-01-22T07:28:56.173Z,101562.44
2023-01-22T07:31:24.572Z,101565.97
2023-01-22T07:33:52.949Z,101568.19
2023-01-22T07:36:22.725Z,101582.19
2023-01-22T07:38:51.183Z,101587.09
2023-01-22T07:41:26.226Z,101589.81
2023-01-22T07:43:57.743Z,101587.81
2023-01-22T07:46:26.342Z,101593.66
2023-01-22T07:48:54.747Z,101601.19
2023-01-22T07:51:25.761Z,101607.06
2023-01-22T07:53:54.164Z,101605.84
2023-01-22T07:56:22.722Z,101621.78
2023-01-22T07:58:51.301Z,101614.00
2023-01-22T08:01:19.648Z,101619.97
2023-01-22T08:03:48.208Z,101625.84
2023-01-22T08:06:20.763Z,101623.31
2023-01-22T08:08:50.568Z,101620.44
2023-01-22T08:11:19.032Z,101625.06
2023-01-22T08:13:48.549Z,101618.53
2023-01-22T08:16:19.936Z,101634.81
2023-01-22T08:18:48.412Z,101632.59
2023-01-22T08:21:16.798Z,101626.97
2023-01-22T08:23:48.858Z,101633.25
2023-01-22T08:26:18.973Z,101625.03
2023-01-22T08:28:52.146Z,101623.88
2023-01-22T08:31:27.851Z,101631.28
2023-01-22T08:33:58.979Z,101630.94
2023-01-22T08:36:32.787Z,101625.09
2023-01-22T08:39:01.164Z,101633.47
2023-01-22T08:41:33.186Z,101638.38
2023-01-22T08:44:01.563Z,101644.84
2023-01-22T08:46:30.095Z,101640.97
2023-01-22T08:48:58.445Z,101633.25
2023-01-22T08:51:27.003Z,101646.94
2023-01-22T08:53:55.408Z,101650.72
2023-01-22T08:56:26.588Z,101648.66
2023-01-22T08:59:00.181Z,101660.28
2023-01-22T09:01:28.595Z,101650.63
2023-01-22T09:03:57.101Z,101657.38
2023-01-22T09:06:27.041Z,101653.41
2023-01-22T09:08:59.434Z,101646.03
2023-01-22T09:11:28.210Z,101667.25
2023-01-22T09:13:58.181Z,101665.84
2023-01-22T09:16:27.303Z,101672.56
2023-01-22T09:18:55.833Z,101675.44
2023-01-22T09:21:24.321Z,101666.47
2023-01-22T09:23:53.449Z,101679.47
2023-01-22T09:26:22.364Z,101672.50
2023-01-22T09:28:50.835Z,101672.31
2023-01-22T09:31:20.701Z,101673.63
2023-01-22T09:33:50.516Z,101683.84
2023-01-22T09:36:18.973Z,101684.22
2023-01-22T09:38:48.639Z,101687.97
2023-01-22T09:41:23.773Z,101686.50
2023-01-22T09:43:54.006Z,101686.88
2023-01-22T09:46:30.029Z,101695.09
2023-01-22T09:49:06.139Z,101669.88
2023-01-22T09:51:37.228Z,101689.47
2023-01-22T09:54:07.758Z,101688.44
2023-01-22T09:56:40.328Z,101680.47
2023-01-22T09:59:15.984Z,101689.19
2023-01-22T10:01:47.897Z,101698.81
2023-01-22T10:04:26.324Z,101691.19
2023-01-22T10:06:56.690Z,101687.88
2023-01-22T10:09:29.160Z,101684.19
2023-01-22T10:11:58.242Z,101688.78
2023-01-22T10:14:29.406Z,101681.75
2023-01-22T10:17:01.657Z,101675.84
2023-01-22T10:19:32.880Z,101690.72
2023-01-22T10:22:03.994Z,101690.91
2023-01-22T10:24:36.407Z,101691.81
2023-01-22T10:27:14.567Z,101683.50
2023-01-22T10:29:45.551Z,101679.34
2023-01-22T10:32:22.124Z,101692.91
2023-01-22T10:35:00.826Z,101688.34
2023-01-22T10:37:32.430Z,101676.72
2023-01-22T10:40:01.408Z,101675.56
2023-01-22T10:42:31.249Z,101671.50
2023-01-22T10:45:12.839Z,101683.16
2023-01-22T10:47:44.955Z,101681.44
2023-01-22T10:50:18.412Z,101691.78
2023-01-22T10:52:51.375Z,101687.47
2023-01-22T10:55:26.438Z,101692.00
2023-01-22T10:57:57.882Z,101696.94
2023-01-22T11:00:46.414Z,101679.94
2023-01-22T11:03:26.829Z,101698.22
2023-01-22T11:05:58.959Z,101686.53
2023-01-22T11:08:31.704Z,101693.09
2023-01-22T11:11:02.786Z,101687.91
2023-01-22T11:13:36.301Z,101688.34
2023-01-22T11:16:11.126Z,101689.13
2023-01-22T11:18:43.707Z,101690.06
2023-01-22T11:21:16.350Z,101696.94
2023-01-22T11:23:50.817Z,101696.72
2023-01-22T11:26:56.023Z,101691.53
2023-01-22T11:29:50.421Z,101695.16
2023-01-22T11:32:44.272Z,101690.22
2023-01-22T11:35:20.981Z,101686.91
2023-01-22T11:38:03.160Z,101681.84
2023-01-22T11:40:33.281Z,101683.16
2023-01-22T11:43:13.489Z,101691.06
2023-01-22T11:46:16.506Z,101690.97
2023-01-22T11:49:03.883Z,101682.59
2023-01-22T11:51:51.299Z,101685.78
2023-01-22T11:54:43.716Z,101682.50
2023-01-22T11:57:18.500Z,101692.53
2023-01-22T11:59:54.140Z,101690.59
2023-01-22T12:02:40.363Z,101697.09
2023-01-22T12:05:27.785Z,101697.38
2023-01-22T12:08:20.244Z,101695.94
2023-01-22T12:11:09.727Z,101698.81
2023-01-22T12:13:58.443Z,101694.81
2023-01-22T12:16:42.590Z,101694.97
2023-01-22T12:19:25.873Z,101696.06
2023-01-22T12:22:06.860Z,101697.69
2023-01-22T12:24:47.575Z,101690.84
2023-01-22T12:27:21.752Z,101703.72
2023-01-22T12:29:56.947Z,101708.47
2023-01-22T12:32:31.211Z,101694.31
2023-01-22T12:35:03.105Z,101715.63
2023-01-22T12:37:42.037Z,101695.56
2023-01-22T12:40:35.679Z,101703.56
2023-01-22T12:43:06.757Z,101719.25
2023-01-22T12:45:42.794Z,101711.59
2023-01-22T12:48:19.803Z,101695.72
2023-01-22T12:50:52.605Z,101708.00
2023-01-22T12:53:28.459Z,101712.66
2023-01-22T12:56:03.216Z,101712.38
2023-01-22T12:58:33.641Z,101714.34
2023-01-22T13:01:05.573Z,101711.19
2023-01-22T13:03:34.615Z,101714.84
2023-01-22T13:06:07.144Z,101705.34
2023-01-22T13:08:45.523Z,101713.56
2023-01-22T13:11:31.402Z,101705.69
2023-01-22T13:14:15.067Z,101709.69
2023-01-22T13:16:56.094Z,101712.06
2023-01-22T13:19:27.538Z,101719.72
2023-01-22T13:22:00.042Z,101718.50
2023-01-22T13:24:30.768Z,101711.63
2023-01-22T13:27:04.656Z,101716.28
2023-01-22T13:29:37.388Z,101726.91
2023-01-22T13:32:07.201Z,101714.38
2023-01-22T13:34:35.753Z,101722.22
2023-01-22T13:37:06.509Z,101731.22
2023-01-22T13:39:38.095Z,101724.50
2023-01-22T13:42:12.319Z,101728.34
2023-01-22T13:44:44.938Z,101730.91
2023-01-22T13:47:27.047Z,101729.34
2023-01-22T13:49:55.480Z,101741.19
2023-01-22T13:52:23.957Z,101742.81
2023-01-22T13:54:58.206Z,101742.59
2023-01-22T13:57:29.198Z,101743.53
2023-01-22T14:00:03.247Z,101738.09
2023-01-22T14:02:36.782Z,101746.16
2023-01-22T14:05:05.544Z,101750.81
2023-01-22T14:07:36.574Z,101738.03
2023-01-22T14:10:14.379Z,101741.75
2023-01-22T14:12:46.888Z,101757.25
2023-01-22T14:15:16.853Z,101753.72
2023-01-22T14:17:45.638Z,101755.81
2023-01-22T14:20:14.768Z,101758.28
2023-01-22T14:22:43.395Z,101757.69
2023-01-22T14:25:11.836Z,101747.00
2023-01-22T14:27:43.174Z,101752.84
2023-01-22T14:30:41.542Z,101757.72
2023-01-22T14:33:13.098Z,101749.19
2023-01-22T14:35:41.475Z,101764.38
2023-01-22T14:38:09.871Z,101763.03
2023-01-22T14:40:38.289Z,101769.47
2023-01-22T14:43:09.342Z,101775.09
2023-01-22T14:45:40.183Z,101768.34
2023-01-22T14:48:13.257Z,101769.00
2023-01-22T14:50:42.096Z,101768.78
2023-01-22T14:53:10.951Z,101751.34
2023-01-22T14:55:39.563Z,101771.91
2023-01-22T14:58:08.096Z,101768.47
2023-01-22T15:00:36.693Z,101773.34
2023-01-22T15:03:07.702Z,101763.72
2023-01-22T15:05:38.701Z,101769.78
2023-01-22T15:08:07.080Z,101778.09
2023-01-22T15:10:35.396Z,101770.13
2023-01-22T15:13:03.783Z,101770.78
2023-01-22T15:15:32.386Z,101774.78
2023-01-22T15:18:00.698Z,101775.22
2023-01-22T15:20:29.272Z,101776.88
2023-01-22T15:22:59.287Z,101777.88
2023-01-22T15:25:28.207Z,101774.88
2023-01-22T15:27:56.575Z,101765.72
2023-01-22T15:30:27.392Z,101779.22
2023-01-22T15:32:55.735Z,101787.81
2023-01-22T15:35:24.036Z,101789.16
2023-01-22T15:37:52.531Z,101786.84
2023-01-22T15:40:24.710Z,101787.06
2023-01-22T15:42:53.096Z,101788.41
2023-01-22T15:45:24.477Z,101788.16
2023-01-22T15:47:53.642Z,101780.53
2023-01-22T15:50:27.189Z,101783.41
2023-01-22T15:52:57.536Z,101778.44
2023-01-22T15:55:29.477Z,101784.84
2023-01-22T15:57:59.964Z,101779.88
2023-01-22T16:00:28.909Z,101793.13
2023-01-22T16:02:57.332Z,101787.59
2023-01-22T16:05:25.781Z,101782.31
2023-01-22T16:07:56.756Z,101780.31
2023-01-22T16:10:28.667Z,101787.47
2023-01-22T16:12:57.391Z,101790.34
2023-01-22T16:15:25.804Z,101778.53
2023-01-22T16:17:54.285Z,101791.94
2023-01-22T16:20:22.731Z,101794.69
2023-01-22T16:22:51.171Z,101774.56
2023-01-22T16:25:22.410Z,101798.56
2023-01-22T16:27:55.507Z,101790.94
2023-01-22T16:30:31.627Z,101793.50
2023-01-22T16:33:04.523Z,101807.88
2023-01-22T16:35:33.982Z,101809.66
2023-01-22T16:38:02.429Z,101810.06
2023-01-22T16:40:30.929Z,101810.50
2023-01-22T16:43:02.933Z,101815.06
2023-01-22T16:45:34.188Z,101816.16
2023-01-22T16:48:05.377Z,101816.16
2023-01-22T16:50:33.796Z,101803.97
2023-01-22T16:53:02.287Z,101813.38
2023-01-22T16:55:30.748Z,101809.75
2023-01-22T16:58:01.011Z,101808.53
2023-01-22T17:00:29.484Z,101819.81
2023-01-22T17:03:00.488Z,101804.88
2023-01-22T17:05:30.815Z,101813.94
2023-01-22T17:07:59.192Z,101827.09
2023-01-22T17:10:27.662Z,101821.34
2023-01-22T17:12:56.140Z,101832.53
2023-01-22T17:15:27.859Z,101825.53
2023-01-22T17:17:59.137Z,101832.53
2023-01-22T17:20:32.946Z,101829.78
2023-01-22T17:23:03.242Z,101824.00
2023-01-22T17:25:35.941Z,101823.13
2023-01-22T17:28:04.465Z,101832.78
2023-01-22T17:30:34.417Z,101830.53
2023-01-22T17:33:03.101Z,101837.84
2023-01-22T17:35:31.793Z,101820.56
2023-01-22T17:38:01.411Z,101836.63
2023-01-22T17:40:29.892Z,101838.59
2023-01-22T17:42:58.316Z,101842.72
2023-01-22T17:45:26.745Z,101841.84
2023-01-22T17:47:56.517Z,101838.50
2023-01-22T17:50:24.917Z,101833.97
2023-01-22T17:52:55.133Z,101825.78
2023-01-22T17:55:23.925Z,101825.13
2023-01-22T17:57:55.265Z,101835.31
2023-01-22T18:00:26.436Z,101825.88
2023-01-22T18:02:58.264Z,101836.16
2023-01-22T18:05:29.364Z,101833.97
2023-01-22T18:08:00.109Z,101841.03
2023-01-22T18:10:29.530Z,101845.81
2023-01-22T18:12:59.786Z,101834.19
2023-01-22T18:15:28.175Z,101839.16
2023-01-22T18:17:57.960Z,101825.31
2023-01-22T18:20:27.677Z,101838.28
2023-01-22T18:22:56.279Z,101829.34
2023-01-22T18:25:27.421Z,101846.34
2023-01-22T18:27:55.841Z,101837.72
2023-01-22T18:30:24.200Z,101847.66
2023-01-22T18:32:52.587Z,101853.41
2023-01-22T18:35:27.926Z,101852.41
2023-01-22T18:37:57.869Z,101860.28
2023-01-22T18:40:31.264Z,101850.53
2023-01-22T18:42:59.668Z,101844.22
2023-01-22T18:45:28.025Z,101855.03
2023-01-22T18:47:56.992Z,101845.84
2023-01-22T18:50:26.813Z,101847.06
2023-01-22T18:52:55.187Z,101853.63
2023-01-22T18:55:23.708Z,101865.88
2023-01-22T18:58:09.769Z,101870.09
2023-01-22T19:00:38.867Z,101871.88
2023-01-22T19:03:09.515Z,101868.13
2023-01-22T19:05:40.821Z,101873.41
2023-01-22T19:08:09.180Z,101866.34
2023-01-22T19:10:37.584Z,101873.66
2023-01-22T19:13:05.968Z,101875.88
2023-01-22T19:15:34.745Z,101880.06
2023-01-22T19:18:03.471Z,101886.78
2023-01-22T19:20:34.490Z,101888.88
2023-01-22T19:23:04.321Z,101897.22
2023-01-22T19:25:33.129Z,101888.34
2023-01-22T19:28:03.587Z,101892.53
2023-01-22T19:30:31.930Z,101894.97
2023-01-22T19:33:01.275Z,101901.03
2023-01-22T19:35:29.717Z,101901.03
2023-01-22T19:37:58.168Z,101896.59
2023-01-22T19:40:27.901Z,101898.94
2023-01-22T19:42:56.261Z,101908.56
2023-01-22T19:45:24.584Z,101901.19
2023-01-22T19:47:55.691Z,101912.69
2023-01-22T19:50:26.333Z,101902.06
2023-01-22T19:52:54.762Z,101919.88
2023-01-22T19:55:25.189Z,101908.47
2023-01-22T19:57:55.334Z,101910.94
2023-01-22T20:00:24.320Z,101899.97
2023-01-22T20:02:52.788Z,101913.91
2023-01-22T20:05:21.852Z,101906.31
2023-01-22T20:07:50.409Z,101904.34
2023-01-22T20:10:20.425Z,101889.69
2023-01-22T20:12:52.360Z,101905.97
2023-01-22T20:15:22.623Z,101911.06
2023-01-22T20:17:51.349Z,101895.38
2023-01-22T20:20:30.417Z,101912.63
2023-01-22T20:23:02.393Z,101900.31
2023-01-22T20:25:32.220Z,101906.06
2023-01-22T20:28:01.189Z,101911.19
2023-01-22T20:30:33.532Z,101908.41
2023-01-22T20:33:01.946Z,101915.59
2023-01-22T20:35:34.032Z,101915.22
2023-01-22T20:38:02.580Z,101912.06
2023-01-22T20:40:31.127Z,101912.06
2023-01-22T20:42:59.473Z,101913.94
2023-01-22T20:45:28.116Z,101913.16
2023-01-22T20:47:57.906Z,101907.19
2023-01-22T20:50:26.592Z,101914.25
2023-01-22T20:52:55.181Z,101907.75
2023-01-22T20:55:24.825Z,101908.00
2023-01-22T20:57:53.433Z,101913.75
2023-01-22T21:00:22.141Z,101916.28
2023-01-22T21:02:53.030Z,101916.84
2023-01-22T21:05:22.879Z,101921.59
2023-01-22T21:07:51.228Z,101910.44
2023-01-22T21:10:22.335Z,101928.19
2023-01-22T21:12:50.763Z,101928.19
2023-01-22T21:15:19.125Z,101925.41
2023-01-22T21:17:47.467Z,101935.69
2023-01-22T21:20:15.814Z,101931.81
2023-01-22T21:22:45.511Z,101934.63
2023-01-22T21:25:14.106Z,101929.63
2023-01-22T21:27:42.423Z,101938.22
2023-01-22T21:30:12.375Z,101940.81
2023-01-22T21:32:40.748Z,101938.56
2023-01-22T21:35:11.027Z,101934.00
2023-01-22T21:37:39.381Z,101943.69
2023-01-22T21:40:13.414Z,101947.59
2023-01-22T21:43:02.852Z,101941.28
2023-01-22T21:45:48.637Z,101942.59
2023-01-22T21:48:17.020Z,101950.16
2023-01-22T21:50:45.358Z,101943.63
2023-01-22T21:53:14.015Z,101943.47
2023-01-22T21:55:51.005Z,101936.22
2023-01-22T21:58:19.372Z,101932.44
2023-01-22T22:00:47.897Z,101932.22
2023-01-22T22:03:17.148Z,101939.75
2023-01-22T22:05:56.260Z,101954.75
2023-01-22T22:08:26.183Z,101939.38
2023-01-22T22:10:56.144Z,101943.47
2023-01-22T22:13:24.995Z,101947.34
2023-01-22T22:15:53.284Z,101951.16
2023-01-22T22:18:21.649Z,101955.53
2023-01-22T22:20:49.954Z,101954.66
2023-01-22T22:23:18.310Z,101959.22
2023-01-22T22:25:48.952Z,101964.63
2023-01-22T22:28:19.043Z,101966.16
2023-01-22T22:30:47.405Z,101963.50
2023-01-22T22:33:15.780Z,101958.00
2023-01-22T22:35:46.981Z,101958.28
2023-01-22T22:38:15.426Z,101957.59
2023-01-22T22:40:43.882Z,101954.00
2023-01-22T22:43:12.280Z,101952.16
2023-01-22T22:45:42.006Z,101953.69
2023-01-22T22:48:11.194Z,101958.06
2023-01-22T22:50:41.079Z,101949.13
2023-01-22T22:53:09.550Z,101958.28
2023-01-22T22:55:41.510Z,101952.53
2023-01-22T22:58:09.920Z,101950.00
2023-01-22T23:00:38.618Z,101953.78
2023-01-22T23:03:08.395Z,101956.91
2023-01-22T23:05:41.268Z,101946.31
2023-01-22T23:08:09.681Z,101958.28
2023-01-22T23:10:39.322Z,101954.88
2023-01-22T23:13:07.849Z,101946.06
2023-01-22T23:15:36.213Z,101940.53
2023-01-22T23:18:04.768Z,101946.28
2023-01-22T23:20:36.528Z,101957.47
2023-01-22T23:23:04.989Z,101959.19
2023-01-22T23:25:33.377Z,101966.38
2023-01-22T23:28:04.401Z,101960.16
2023-01-22T23:30:32.835Z,101958.16
2023-01-22T23:33:01.250Z,101962.16
2023-01-22T23:35:30.050Z,101969.66
2023-01-22T23:37:59.859Z,101964.50
2023-01-22T23:40:28.222Z,101958.06
2023-01-22T23:42:56.630Z,101967.81
2023-01-22T23:45:24.962Z,101970.25
2023-01-22T23:47:53.860Z,101965.50
2023-01-22T23:50:22.191Z,101970.50
2023-01-22T23:52:50.514Z,101969.44
2023-01-22T23:55:20.365Z,101967.03
2023-01-22T23:57:48.741Z,101973.34
